Weather at Ben Alder Lodge Helipad

Public forecast

Using degrees Celsius for public forecast. Weather courtesy of forecast.io.

Closest aviation weather report (METAR) to Ben Alder Lodge Helipad

Closest report is Inverness Airport, 41.6 nm (77.0 km) NNE.

2024/05/30 02:20 (retrieved 23 minutes ago)

EGPE 300220Z 22003KT 9999 BKN025 09/08 Q1010

Closest aviation forecast (TAF) to Ben Alder Lodge Helipad

Forecast is more than 6 hours old.

Closest forecast is RAF Waddington, 258.3 nm (478.3 km) SSE.

2024/05/29 18:18 (retrieved 8 hours ago)

TAF TAF EGXW 291703Z 2918/3012 CNL